createdAt,value
2022-08-29T00:03:11.559Z,22.70
2022-08-29T00:08:15.478Z,22.67
2022-08-29T00:13:19.299Z,22.63
2022-08-29T00:18:22.248Z,22.59
2022-08-29T00:23:25.200Z,22.56
2022-08-29T00:28:28.469Z,22.57
2022-08-29T00:33:31.770Z,22.57
2022-08-29T00:38:34.885Z,22.54
2022-08-29T00:43:38.054Z,22.51
2022-08-29T00:48:42.178Z,22.47
2022-08-29T00:53:47.996Z,22.47
2022-08-29T00:58:57.648Z,22.50
2022-08-29T01:04:00.643Z,22.49
2022-08-29T01:09:04.650Z,22.50
2022-08-29T01:14:08.266Z,22.47
2022-08-29T01:19:39.787Z,22.44
2022-08-29T01:24:50.770Z,22.43
2022-08-29T01:29:53.784Z,22.46
2022-08-29T01:34:56.817Z,22.45
2022-08-29T01:39:59.864Z,22.44
2022-08-29T01:45:05.573Z,22.46
2022-08-29T01:50:15.461Z,22.49
2022-08-29T01:55:18.349Z,22.54
2022-08-29T02:00:22.219Z,22.52
2022-08-29T02:05:25.150Z,22.51
2022-08-29T02:10:28.346Z,22.50
2022-08-29T02:15:32.050Z,22.50
2022-08-29T02:20:34.990Z,22.51
2022-08-29T02:25:44.428Z,22.50
2022-08-29T02:30:50.536Z,22.46
2022-08-29T02:35:59.710Z,22.50
2022-08-29T02:41:04.388Z,22.47
2022-08-29T02:46:08.119Z,22.45
2022-08-29T02:51:17.856Z,22.38
2022-08-29T02:56:21.442Z,22.29
2022-08-29T03:01:26.241Z,22.23
2022-08-29T03:06:29.814Z,22.23
2022-08-29T03:11:32.912Z,22.24
2022-08-29T03:16:36.089Z,22.27
2022-08-29T03:21:39.241Z,22.27
2022-08-29T03:26:42.082Z,22.34
2022-08-29T03:31:45.088Z,22.45
2022-08-29T03:36:47.993Z,22.51
2022-08-29T03:41:51.348Z,22.56
2022-08-29T03:46:54.596Z,22.52
2022-08-29T03:51:57.764Z,22.50
2022-08-29T03:57:00.693Z,22.47
2022-08-29T04:02:04.101Z,22.46
2022-08-29T04:07:07.068Z,22.45
2022-08-29T04:12:11.755Z,22.41
2022-08-29T04:17:14.633Z,22.27
2022-08-29T04:22:17.581Z,22.24
2022-08-29T04:27:20.615Z,22.24
2022-08-29T04:32:23.497Z,22.16
2022-08-29T04:37:26.392Z,22.09
2022-08-29T04:42:30.249Z,21.98
2022-08-29T04:47:36.233Z,21.92
2022-08-29T04:52:39.377Z,21.91
2022-08-29T04:57:42.423Z,21.92
2022-08-29T05:02:45.773Z,21.87
2022-08-29T05:07:48.745Z,21.82
2022-08-29T05:12:51.714Z,21.77
2022-08-29T05:17:55.151Z,21.75
2022-08-29T05:22:58.543Z,21.76
2022-08-29T05:28:01.695Z,21.74
2022-08-29T05:33:06.247Z,21.69
2022-08-29T05:38:10.148Z,21.70
2022-08-29T05:43:13.131Z,21.71
2022-08-29T05:48:18.423Z,21.68
2022-08-29T05:53:21.501Z,21.65
2022-08-29T05:58:24.563Z,21.63
2022-08-29T06:03:27.659Z,21.61
2022-08-29T06:08:30.648Z,21.57
2022-08-29T06:13:33.503Z,21.54
2022-08-29T06:18:36.488Z,21.52
2022-08-29T06:23:40.684Z,21.50
2022-08-29T06:28:46.452Z,21.47
2022-08-29T06:33:53.403Z,21.47
2022-08-29T06:39:00.844Z,21.43
2022-08-29T06:44:04.876Z,21.43
2022-08-29T06:49:11.581Z,21.45
2022-08-29T06:54:16.315Z,21.47
2022-08-29T06:59:20.380Z,21.49
2022-08-29T07:04:26.448Z,21.59
2022-08-29T07:09:32.682Z,21.72
2022-08-29T07:14:35.680Z,21.88
2022-08-29T07:19:38.757Z,22.04
2022-08-29T07:24:44.006Z,22.18
2022-08-29T07:29:50.559Z,22.27
2022-08-29T07:34:56.070Z,22.33
2022-08-29T07:39:59.402Z,22.33
2022-08-29T07:45:04.394Z,22.37
2022-08-29T07:50:09.689Z,22.46
2022-08-29T07:55:12.775Z,22.51
2022-08-29T08:00:15.926Z,22.56
2022-08-29T08:05:18.987Z,22.64
2022-08-29T08:10:22.095Z,22.64
2022-08-29T08:15:24.982Z,22.62
2022-08-29T08:20:27.907Z,22.60
2022-08-29T08:25:32.102Z,22.71
2022-08-29T08:30:35.831Z,22.80
2022-08-29T08:35:41.834Z,22.79
2022-08-29T08:41:00.947Z,22.79
2022-08-29T08:46:04.294Z,22.77
2022-08-29T08:51:18.068Z,22.77
2022-08-29T08:56:46.555Z,22.85
2022-08-29T09:02:07.162Z,22.95
2022-08-29T09:07:44.655Z,22.99
2022-08-29T09:13:24.687Z,23.10
2022-08-29T09:18:41.277Z,23.21
2022-08-29T09:23:47.713Z,23.25
2022-08-29T09:28:51.045Z,23.36
2022-08-29T09:34:07.835Z,23.48
2022-08-29T09:39:28.564Z,23.64
2022-08-29T09:44:34.582Z,23.81
2022-08-29T09:49:40.135Z,23.91
2022-08-29T09:54:44.728Z,23.96
2022-08-29T10:00:04.770Z,24.06
2022-08-29T10:05:13.251Z,24.28
2022-08-29T10:10:22.317Z,24.46
2022-08-29T10:15:50.419Z,24.50
2022-08-29T10:20:56.854Z,24.47
2022-08-29T10:26:09.541Z,24.39
2022-08-29T10:31:23.091Z,24.45
2022-08-29T10:36:33.088Z,24.67
2022-08-29T10:41:50.726Z,24.82
2022-08-29T10:47:02.330Z,24.79
2022-08-29T10:52:47.297Z,24.93
2022-08-29T10:58:17.840Z,25.17
2022-08-29T11:03:53.459Z,25.45
2022-08-29T11:09:26.339Z,25.43
2022-08-29T11:14:35.783Z,25.48
2022-08-29T11:20:00.365Z,25.67
2022-08-29T11:25:10.347Z,25.77
2022-08-29T11:30:22.091Z,25.58
2022-08-29T11:35:33.589Z,25.40
2022-08-29T11:46:28.851Z,25.32
2022-08-29T11:51:38.003Z,25.65
2022-08-29T11:56:41.538Z,26.01
2022-08-29T12:01:44.637Z,25.97
2022-08-29T12:07:08.355Z,25.77
2022-08-29T12:12:14.348Z,25.63
2022-08-29T12:17:17.185Z,25.47
2022-08-29T12:22:50.369Z,25.35
2022-08-29T12:28:05.977Z,25.48
2022-08-29T12:33:27.578Z,25.80
2022-08-29T12:38:50.151Z,25.69
2022-08-29T12:43:59.993Z,25.56
2022-08-29T12:49:15.908Z,25.65
2022-08-29T12:54:33.333Z,26.03
2022-08-29T12:59:36.329Z,26.33
2022-08-29T13:04:44.383Z,26.30
2022-08-29T13:09:54.918Z,26.19
2022-08-29T13:15:17.823Z,25.98
2022-08-29T13:20:42.794Z,25.79
2022-08-29T13:25:50.670Z,25.63
2022-08-29T13:31:09.244Z,25.52
2022-08-29T13:36:27.439Z,25.42
2022-08-29T13:41:30.472Z,25.36
2022-08-29T13:46:33.709Z,25.58
2022-08-29T13:51:36.555Z,26.02
2022-08-29T13:56:39.632Z,26.36
2022-08-29T14:07:06.121Z,26.48
2022-08-29T14:12:10.033Z,26.61
2022-08-29T14:17:18.212Z,26.81
2022-08-29T14:22:21.823Z,26.99
2022-08-29T14:27:25.073Z,27.01
2022-08-29T14:32:27.987Z,26.85
2022-08-29T14:37:30.881Z,26.68
2022-08-29T14:42:33.787Z,26.55
2022-08-29T14:47:37.266Z,26.43
2022-08-29T14:52:41.483Z,26.26
2022-08-29T14:57:44.774Z,26.10
2022-08-29T15:02:48.144Z,26.00
2022-08-29T15:07:51.181Z,25.94
2022-08-29T15:12:54.226Z,25.94
2022-08-29T15:17:59.596Z,25.89
2022-08-29T15:23:02.795Z,25.84
2022-08-29T15:28:06.383Z,25.81
2022-08-29T15:33:09.582Z,25.72
2022-08-29T15:38:12.505Z,25.64
2022-08-29T15:43:15.483Z,25.62
2022-08-29T15:48:18.525Z,25.62
2022-08-29T15:53:22.122Z,25.59
2022-08-29T15:58:25.302Z,25.56
2022-08-29T16:03:28.389Z,25.51
2022-08-29T16:08:31.508Z,25.45
2022-08-29T16:13:34.499Z,25.42
2022-08-29T16:18:37.423Z,25.35
2022-08-29T16:23:40.507Z,25.28
2022-08-29T16:28:43.454Z,25.21
2022-08-29T16:33:46.864Z,25.12
2022-08-29T16:38:49.819Z,25.05
2022-08-29T16:43:53.499Z,24.99
2022-08-29T16:48:56.460Z,24.94
2022-08-29T16:54:00.238Z,24.88
2022-08-29T16:59:04.614Z,24.83
2022-08-29T17:04:12.872Z,24.76
2022-08-29T17:09:18.284Z,24.70
2022-08-29T17:14:23.783Z,24.65
2022-08-29T17:19:26.852Z,24.61
2022-08-29T17:24:29.758Z,24.58
2022-08-29T17:29:32.727Z,24.53
2022-08-29T17:34:38.056Z,24.44
2022-08-29T17:39:40.930Z,24.37
2022-08-29T17:44:44.079Z,24.30
2022-08-29T17:49:48.614Z,24.25
2022-08-29T17:54:51.474Z,24.21
2022-08-29T17:59:54.729Z,24.17
2022-08-29T18:04:58.714Z,24.14
2022-08-29T18:10:03.500Z,24.07
2022-08-29T18:15:09.470Z,24.04
2022-08-29T18:20:15.742Z,23.99
2022-08-29T18:25:22.486Z,23.84
2022-08-29T18:30:26.249Z,23.72
2022-08-29T18:35:29.545Z,23.60
2022-08-29T18:40:35.383Z,23.54
2022-08-29T18:45:43.062Z,23.47
2022-08-29T18:50:46.487Z,23.26
2022-08-29T18:55:52.677Z,23.09
2022-08-29T19:00:56.567Z,22.96
2022-08-29T19:06:00.014Z,22.87
2022-08-29T19:11:06.729Z,22.78
2022-08-29T19:16:10.136Z,22.67
2022-08-29T19:21:13.208Z,22.54
2022-08-29T19:26:22.515Z,22.45
2022-08-29T19:31:27.754Z,22.42
2022-08-29T19:36:30.870Z,22.38
2022-08-29T19:41:34.801Z,22.29
2022-08-29T19:46:39.233Z,22.20
2022-08-29T19:51:42.913Z,22.16
2022-08-29T19:56:46.879Z,22.08
2022-08-29T20:01:50.045Z,21.88
2022-08-29T20:06:57.291Z,21.68
2022-08-29T20:12:04.984Z,21.51
2022-08-29T20:17:09.450Z,21.35
2022-08-29T20:22:13.095Z,21.24
2022-08-29T20:27:16.127Z,21.38
2022-08-29T20:32:19.221Z,21.31
2022-08-29T20:37:23.980Z,21.16
2022-08-29T20:42:27.238Z,21.07
2022-08-29T20:47:30.123Z,21.03
2022-08-29T20:52:32.996Z,21.01
2022-08-29T20:57:39.181Z,20.99
2022-08-29T21:03:02.311Z,20.90
2022-08-29T21:08:05.542Z,20.78
2022-08-29T21:13:11.664Z,20.71
2022-08-29T21:18:16.250Z,20.68
2022-08-29T21:23:25.154Z,20.64
2022-08-29T21:28:31.345Z,20.59
2022-08-29T21:33:44.443Z,20.56
2022-08-29T21:38:51.585Z,20.53
2022-08-29T21:43:54.816Z,20.48
2022-08-29T21:49:00.593Z,20.47
2022-08-29T21:54:04.572Z,20.47
2022-08-29T21:59:08.174Z,20.39
2022-08-29T22:04:19.299Z,20.27
2022-08-29T22:09:32.835Z,20.17
2022-08-29T22:14:54.472Z,20.13
2022-08-29T22:19:57.402Z,20.09
2022-08-29T22:25:00.237Z,20.08
2022-08-29T22:30:05.182Z,20.08
2022-08-29T22:35:10.030Z,20.06
2022-08-29T22:40:16.692Z,20.03
2022-08-29T22:45:19.961Z,19.97
2022-08-29T22:50:25.057Z,19.92
2022-08-29T23:00:30.838Z,19.82
2022-08-29T23:05:33.807Z,19.77
2022-08-29T23:10:36.843Z,19.71
2022-08-29T23:15:39.764Z,19.63
2022-08-29T23:20:42.640Z,19.57
2022-08-29T23:25:49.643Z,19.53
2022-08-29T23:30:52.949Z,19.51
2022-08-29T23:35:56.219Z,19.49
2022-08-29T23:40:59.313Z,19.48
2022-08-29T23:46:03.563Z,19.46
2022-08-29T23:51:09.709Z,19.43
2022-08-29T23:56:18.659Z,19.42
